sensor_id;sensor_type;location;lat;lon;timestamp;P1;durP1;ratioP1;P2;durP2;ratioP2
4694;SDS011;2361;49.540;8.390;2023-06-14T00:02:18;4.50;;;4.10;;
4694;SDS011;2361;49.540;8.390;2023-06-14T00:04:45;3.93;;;3.50;;
4694;SDS011;2361;49.540;8.390;2023-06-14T00:07:14;8.57;;;3.40;;
4694;SDS011;2361;49.540;8.390;2023-06-14T00:09:43;5.60;;;4.00;;
4694;SDS011;2361;49.540;8.390;2023-06-14T00:12:10;5.23;;;3.40;;
4694;SDS011;2361;49.540;8.390;2023-06-14T00:14:37;4.10;;;3.70;;
4694;SDS011;2361;49.540;8.390;2023-06-14T00:17:04;5.40;;;3.70;;
4694;SDS011;2361;49.540;8.390;2023-06-14T00:19:33;4.03;;;3.60;;
4694;SDS011;2361;49.540;8.390;2023-06-14T00:22:02;3.60;;;3.30;;
4694;SDS011;2361;49.540;8.390;2023-06-14T00:24:29;3.40;;;3.07;;
4694;SDS011;2361;49.540;8.390;2023-06-14T00:26:56;4.00;;;3.27;;
4694;SDS011;2361;49.540;8.390;2023-06-14T00:29:23;4.47;;;3.70;;
4694;SDS011;2361;49.540;8.390;2023-06-14T00:31:50;3.77;;;3.33;;
4694;SDS011;2361;49.540;8.390;2023-06-14T00:34:17;3.00;;;2.80;;
4694;SDS011;2361;49.540;8.390;2023-06-14T00:36:44;3.50;;;3.20;;
4694;SDS011;2361;49.540;8.390;2023-06-14T00:39:11;3.37;;;3.17;;
4694;SDS011;2361;49.540;8.390;2023-06-14T00:41:39;6.03;;;4.07;;
4694;SDS011;2361;49.540;8.390;2023-06-14T00:44:06;3.77;;;3.47;;
4694;SDS011;2361;49.540;8.390;2023-06-14T00:46:33;5.13;;;3.90;;
4694;SDS011;2361;49.540;8.390;2023-06-14T00:49:00;3.47;;;3.17;;
4694;SDS011;2361;49.540;8.390;2023-06-14T00:51:27;3.60;;;3.30;;
4694;SDS011;2361;49.540;8.390;2023-06-14T00:53:54;4.13;;;3.30;;
4694;SDS011;2361;49.540;8.390;2023-06-14T00:56:21;3.70;;;3.40;;
4694;SDS011;2361;49.540;8.390;2023-06-14T00:58:50;5.83;;;3.60;;
4694;SDS011;2361;49.540;8.390;2023-06-14T01:01:17;4.90;;;4.10;;
4694;SDS011;2361;49.540;8.390;2023-06-14T01:03:44;5.30;;;4.00;;
4694;SDS011;2361;49.540;8.390;2023-06-14T01:08:57;4.43;;;3.80;;
4694;SDS011;2361;49.540;8.390;2023-06-14T01:11:38;4.43;;;3.90;;
4694;SDS011;2361;49.540;8.390;2023-06-14T01:14:16;3.53;;;3.23;;
4694;SDS011;2361;49.540;8.390;2023-06-14T01:16:44;5.20;;;3.83;;
4694;SDS011;2361;49.540;8.390;2023-06-14T01:19:12;4.03;;;3.70;;
4694;SDS011;2361;49.540;8.390;2023-06-14T01:21:42;4.83;;;4.03;;
4694;SDS011;2361;49.540;8.390;2023-06-14T01:24:09;5.23;;;4.00;;
4694;SDS011;2361;49.540;8.390;2023-06-14T01:26:37;6.17;;;4.43;;
4694;SDS011;2361;49.540;8.390;2023-06-14T01:29:12;4.00;;;3.60;;
4694;SDS011;2361;49.540;8.390;2023-06-14T01:31:44;4.43;;;4.03;;
4694;SDS011;2361;49.540;8.390;2023-06-14T01:34:11;4.40;;;4.10;;
4694;SDS011;2361;49.540;8.390;2023-06-14T01:36:39;4.90;;;4.37;;
4694;SDS011;2361;49.540;8.390;2023-06-14T01:39:11;5.47;;;4.53;;
4694;SDS011;2361;49.540;8.390;2023-06-14T01:41:40;4.90;;;4.10;;
4694;SDS011;2361;49.540;8.390;2023-06-14T01:44:09;4.57;;;4.10;;
4694;SDS011;2361;49.540;8.390;2023-06-14T01:46:37;13.50;;;5.17;;
4694;SDS011;2361;49.540;8.390;2023-06-14T01:49:04;4.63;;;4.23;;
4694;SDS011;2361;49.540;8.390;2023-06-14T01:51:31;4.40;;;3.80;;
4694;SDS011;2361;49.540;8.390;2023-06-14T01:53:58;7.20;;;4.70;;
4694;SDS011;2361;49.540;8.390;2023-06-14T01:56:26;3.40;;;3.10;;
4694;SDS011;2361;49.540;8.390;2023-06-14T01:58:54;3.40;;;3.07;;
4694;SDS011;2361;49.540;8.390;2023-06-14T02:01:21;3.47;;;3.17;;
4694;SDS011;2361;49.540;8.390;2023-06-14T02:03:48;5.57;;;3.83;;
4694;SDS011;2361;49.540;8.390;2023-06-14T02:06:17;3.50;;;3.20;;
4694;SDS011;2361;49.540;8.390;2023-06-14T02:08:44;5.80;;;3.80;;
4694;SDS011;2361;49.540;8.390;2023-06-14T02:11:11;3.60;;;3.27;;
4694;SDS011;2361;49.540;8.390;2023-06-14T02:13:38;3.70;;;3.40;;
4694;SDS011;2361;49.540;8.390;2023-06-14T02:16:05;3.97;;;3.57;;
4694;SDS011;2361;49.540;8.390;2023-06-14T02:18:33;4.90;;;3.47;;
4694;SDS011;2361;49.540;8.390;2023-06-14T02:21:01;4.73;;;3.47;;
4694;SDS011;2361;49.540;8.390;2023-06-14T02:23:28;4.00;;;3.63;;
4694;SDS011;2361;49.540;8.390;2023-06-14T02:25:55;3.97;;;3.60;;
4694;SDS011;2361;49.540;8.390;2023-06-14T02:28:22;6.10;;;4.57;;
4694;SDS011;2361;49.540;8.390;2023-06-14T02:30:49;5.17;;;3.47;;
4694;SDS011;2361;49.540;8.390;2023-06-14T02:33:17;5.73;;;4.60;;
4694;SDS011;2361;49.540;8.390;2023-06-14T02:35:44;6.03;;;5.10;;
4694;SDS011;2361;49.540;8.390;2023-06-14T02:38:12;5.80;;;4.27;;
4694;SDS011;2361;49.540;8.390;2023-06-14T02:40:39;8.53;;;4.60;;
4694;SDS011;2361;49.540;8.390;2023-06-14T02:43:08;9.63;;;3.93;;
4694;SDS011;2361;49.540;8.390;2023-06-14T02:45:35;5.63;;;4.03;;
4694;SDS011;2361;49.540;8.390;2023-06-14T02:48:02;4.47;;;3.93;;
4694;SDS011;2361;49.540;8.390;2023-06-14T02:50:30;3.93;;;3.53;;
4694;SDS011;2361;49.540;8.390;2023-06-14T02:52:57;9.60;;;5.10;;
4694;SDS011;2361;49.540;8.390;2023-06-14T02:55:24;3.57;;;3.23;;
4694;SDS011;2361;49.540;8.390;2023-06-14T02:57:52;4.13;;;3.73;;
4694;SDS011;2361;49.540;8.390;2023-06-14T03:00:20;4.37;;;3.97;;
4694;SDS011;2361;49.540;8.390;2023-06-14T03:02:47;3.60;;;3.20;;
4694;SDS011;2361;49.540;8.390;2023-06-14T03:05:14;3.73;;;3.40;;
4694;SDS011;2361;49.540;8.390;2023-06-14T03:07:42;6.07;;;4.10;;
4694;SDS011;2361;49.540;8.390;2023-06-14T03:10:11;6.77;;;4.40;;
4694;SDS011;2361;49.540;8.390;2023-06-14T03:12:39;5.77;;;4.50;;
4694;SDS011;2361;49.540;8.390;2023-06-14T03:15:07;5.73;;;4.60;;
4694;SDS011;2361;49.540;8.390;2023-06-14T03:17:35;5.03;;;3.97;;
4694;SDS011;2361;49.540;8.390;2023-06-14T03:20:05;5.60;;;4.73;;
4694;SDS011;2361;49.540;8.390;2023-06-14T03:22:34;6.10;;;4.97;;
4694;SDS011;2361;49.540;8.390;2023-06-14T03:25:01;5.63;;;4.73;;
4694;SDS011;2361;49.540;8.390;2023-06-14T03:27:30;7.70;;;5.30;;
4694;SDS011;2361;49.540;8.390;2023-06-14T03:29:57;8.73;;;4.97;;
4694;SDS011;2361;49.540;8.390;2023-06-14T03:32:24;6.00;;;5.40;;
4694;SDS011;2361;49.540;8.390;2023-06-14T03:34:51;8.27;;;5.10;;
4694;SDS011;2361;49.540;8.390;2023-06-14T03:37:18;5.60;;;4.30;;
4694;SDS011;2361;49.540;8.390;2023-06-14T03:39:45;6.20;;;5.10;;
4694;SDS011;2361;49.540;8.390;2023-06-14T03:42:13;5.17;;;4.67;;
4694;SDS011;2361;49.540;8.390;2023-06-14T03:44:40;7.03;;;5.33;;
4694;SDS011;2361;49.540;8.390;2023-06-14T03:47:14;7.90;;;5.10;;
4694;SDS011;2361;49.540;8.390;2023-06-14T03:49:41;8.53;;;5.30;;
4694;SDS011;2361;49.540;8.390;2023-06-14T03:52:08;7.60;;;5.10;;
4694;SDS011;2361;49.540;8.390;2023-06-14T03:54:40;6.70;;;4.63;;
4694;SDS011;2361;49.540;8.390;2023-06-14T03:57:27;5.57;;;4.43;;
4694;SDS011;2361;49.540;8.390;2023-06-14T03:59:54;5.00;;;4.40;;
4694;SDS011;2361;49.540;8.390;2023-06-14T04:02:21;4.33;;;3.93;;
4694;SDS011;2361;49.540;8.390;2023-06-14T04:04:51;5.23;;;4.73;;
4694;SDS011;2361;49.540;8.390;2023-06-14T04:07:21;5.17;;;4.30;;
4694;SDS011;2361;49.540;8.390;2023-06-14T04:09:49;5.70;;;5.10;;
4694;SDS011;2361;49.540;8.390;2023-06-14T04:12:16;4.67;;;4.20;;
4694;SDS011;2361;49.540;8.390;2023-06-14T04:14:44;5.93;;;5.20;;
4694;SDS011;2361;49.540;8.390;2023-06-14T04:17:11;5.13;;;4.63;;
4694;SDS011;2361;49.540;8.390;2023-06-14T04:19:41;5.13;;;4.63;;
4694;SDS011;2361;49.540;8.390;2023-06-14T04:22:10;6.73;;;4.63;;
4694;SDS011;2361;49.540;8.390;2023-06-14T04:24:37;5.13;;;4.63;;
4694;SDS011;2361;49.540;8.390;2023-06-14T04:27:04;6.10;;;4.40;;
4694;SDS011;2361;49.540;8.390;2023-06-14T04:29:33;5.27;;;4.13;;
4694;SDS011;2361;49.540;8.390;2023-06-14T04:32:00;6.30;;;5.00;;
4694;SDS011;2361;49.540;8.390;2023-06-14T04:34:28;5.53;;;5.03;;
4694;SDS011;2361;49.540;8.390;2023-06-14T04:37:00;6.70;;;4.90;;
4694;SDS011;2361;49.540;8.390;2023-06-14T04:39:27;6.13;;;4.93;;
4694;SDS011;2361;49.540;8.390;2023-06-14T04:41:54;8.50;;;4.83;;
4694;SDS011;2361;49.540;8.390;2023-06-14T04:44:23;5.87;;;5.33;;
4694;SDS011;2361;49.540;8.390;2023-06-14T04:46:56;5.50;;;4.37;;
4694;SDS011;2361;49.540;8.390;2023-06-14T04:49:25;5.07;;;4.67;;
4694;SDS011;2361;49.540;8.390;2023-06-14T04:51:53;5.30;;;3.90;;
4694;SDS011;2361;49.540;8.390;2023-06-14T04:54:25;6.40;;;5.33;;
4694;SDS011;2361;49.540;8.390;2023-06-14T04:56:53;6.20;;;5.00;;
4694;SDS011;2361;49.540;8.390;2023-06-14T04:59:21;4.40;;;4.00;;
4694;SDS011;2361;49.540;8.390;2023-06-14T05:01:51;5.13;;;3.73;;
4694;SDS011;2361;49.540;8.390;2023-06-14T05:04:19;6.17;;;4.90;;
4694;SDS011;2361;49.540;8.390;2023-06-14T05:06:48;4.97;;;4.43;;
4694;SDS011;2361;49.540;8.390;2023-06-14T05:09:15;4.73;;;4.23;;
4694;SDS011;2361;49.540;8.390;2023-06-14T05:11:43;4.50;;;3.40;;
4694;SDS011;2361;49.540;8.390;2023-06-14T05:14:11;4.17;;;3.80;;
4694;SDS011;2361;49.540;8.390;2023-06-14T05:16:38;5.20;;;4.70;;
4694;SDS011;2361;49.540;8.390;2023-06-14T05:19:06;6.00;;;4.67;;
4694;SDS011;2361;49.540;8.390;2023-06-14T05:21:33;4.07;;;3.70;;
4694;SDS011;2361;49.540;8.390;2023-06-14T05:24:05;6.27;;;5.10;;
4694;SDS011;2361;49.540;8.390;2023-06-14T05:26:33;5.60;;;4.37;;
4694;SDS011;2361;49.540;8.390;2023-06-14T05:29:00;5.37;;;4.83;;
4694;SDS011;2361;49.540;8.390;2023-06-14T05:31:27;6.40;;;4.40;;
4694;SDS011;2361;49.540;8.390;2023-06-14T05:33:54;5.10;;;4.63;;
4694;SDS011;2361;49.540;8.390;2023-06-14T05:36:21;4.70;;;4.30;;
4694;SDS011;2361;49.540;8.390;2023-06-14T05:38:49;5.93;;;4.40;;
4694;SDS011;2361;49.540;8.390;2023-06-14T05:41:26;5.30;;;4.80;;
4694;SDS011;2361;49.540;8.390;2023-06-14T05:43:54;3.33;;;3.07;;
4694;SDS011;2361;49.540;8.390;2023-06-14T05:46:22;7.50;;;4.70;;
4694;SDS011;2361;49.540;8.390;2023-06-14T05:48:53;6.73;;;4.87;;
4694;SDS011;2361;49.540;8.390;2023-06-14T05:51:21;5.73;;;5.17;;
4694;SDS011;2361;49.540;8.390;2023-06-14T05:53:51;5.03;;;4.63;;
4694;SDS011;2361;49.540;8.390;2023-06-14T05:56:18;4.93;;;4.40;;
4694;SDS011;2361;49.540;8.390;2023-06-14T05:58:45;4.70;;;4.30;;
4694;SDS011;2361;49.540;8.390;2023-06-14T06:01:13;4.73;;;4.17;;
4694;SDS011;2361;49.540;8.390;2023-06-14T06:03:41;5.40;;;4.87;;
4694;SDS011;2361;49.540;8.390;2023-06-14T06:06:12;5.80;;;5.30;;
4694;SDS011;2361;49.540;8.390;2023-06-14T06:08:40;4.83;;;4.40;;
4694;SDS011;2361;49.540;8.390;2023-06-14T06:11:07;6.13;;;5.00;;
4694;SDS011;2361;49.540;8.390;2023-06-14T06:13:35;4.87;;;4.40;;
4694;SDS011;2361;49.540;8.390;2023-06-14T06:16:02;4.90;;;4.50;;
4694;SDS011;2361;49.540;8.390;2023-06-14T06:18:30;6.30;;;4.90;;
4694;SDS011;2361;49.540;8.390;2023-06-14T06:20:57;5.50;;;5.00;;
4694;SDS011;2361;49.540;8.390;2023-06-14T06:23:24;4.87;;;4.47;;
4694;SDS011;2361;49.540;8.390;2023-06-14T06:25:51;3.90;;;3.60;;
4694;SDS011;2361;49.540;8.390;2023-06-14T06:28:18;4.90;;;4.50;;
4694;SDS011;2361;49.540;8.390;2023-06-14T06:30:45;4.03;;;3.73;;
4694;SDS011;2361;49.540;8.390;2023-06-14T06:33:12;4.47;;;4.10;;
4694;SDS011;2361;49.540;8.390;2023-06-14T06:35:40;5.57;;;4.70;;
4694;SDS011;2361;49.540;8.390;2023-06-14T06:38:07;4.97;;;4.50;;
4694;SDS011;2361;49.540;8.390;2023-06-14T06:40:36;6.40;;;5.17;;
4694;SDS011;2361;49.540;8.390;2023-06-14T06:43:03;5.00;;;4.60;;
4694;SDS011;2361;49.540;8.390;2023-06-14T06:45:30;5.30;;;4.40;;
4694;SDS011;2361;49.540;8.390;2023-06-14T06:47:57;4.27;;;3.97;;
4694;SDS011;2361;49.540;8.390;2023-06-14T06:50:24;5.23;;;4.83;;
4694;SDS011;2361;49.540;8.390;2023-06-14T06:52:51;5.10;;;4.70;;
4694;SDS011;2361;49.540;8.390;2023-06-14T06:55:20;4.73;;;4.33;;
4694;SDS011;2361;49.540;8.390;2023-06-14T06:57:47;4.97;;;4.57;;
4694;SDS011;2361;49.540;8.390;2023-06-14T07:00:16;4.60;;;4.30;;
4694;SDS011;2361;49.540;8.390;2023-06-14T07:02:44;8.40;;;3.97;;
4694;SDS011;2361;49.540;8.390;2023-06-14T07:05:12;5.47;;;4.10;;
4694;SDS011;2361;49.540;8.390;2023-06-14T07:07:42;3.50;;;3.20;;
4694;SDS011;2361;49.540;8.390;2023-06-14T07:10:09;4.13;;;3.83;;
4694;SDS011;2361;49.540;8.390;2023-06-14T07:12:36;3.33;;;3.13;;
4694;SDS011;2361;49.540;8.390;2023-06-14T07:15:08;3.47;;;3.27;;
4694;SDS011;2361;49.540;8.390;2023-06-14T07:17:36;4.20;;;3.80;;
4694;SDS011;2361;49.540;8.390;2023-06-14T07:20:04;3.70;;;3.50;;
4694;SDS011;2361;49.540;8.390;2023-06-14T07:22:38;4.00;;;3.70;;
4694;SDS011;2361;49.540;8.390;2023-06-14T07:25:09;3.40;;;3.10;;
4694;SDS011;2361;49.540;8.390;2023-06-14T07:27:41;2.70;;;2.50;;
4694;SDS011;2361;49.540;8.390;2023-06-14T07:30:09;4.30;;;3.87;;
4694;SDS011;2361;49.540;8.390;2023-06-14T07:32:37;2.87;;;2.67;;
4694;SDS011;2361;49.540;8.390;2023-06-14T07:35:04;3.17;;;2.97;;
4694;SDS011;2361;49.540;8.390;2023-06-14T07:37:32;4.03;;;3.50;;
4694;SDS011;2361;49.540;8.390;2023-06-14T07:39:59;3.90;;;3.60;;
4694;SDS011;2361;49.540;8.390;2023-06-14T07:42:26;3.90;;;3.60;;
4694;SDS011;2361;49.540;8.390;2023-06-14T07:44:54;3.90;;;3.50;;
4694;SDS011;2361;49.540;8.390;2023-06-14T07:47:20;3.90;;;3.60;;
4694;SDS011;2361;49.540;8.390;2023-06-14T07:49:48;4.47;;;4.17;;
4694;SDS011;2361;49.540;8.390;2023-06-14T07:52:15;3.60;;;3.03;;
4694;SDS011;2361;49.540;8.390;2023-06-14T07:54:42;2.63;;;2.50;;
4694;SDS011;2361;49.540;8.390;2023-06-14T07:57:09;3.93;;;3.30;;
4694;SDS011;2361;49.540;8.390;2023-06-14T07:59:36;4.57;;;4.17;;
4694;SDS011;2361;49.540;8.390;2023-06-14T08:02:03;3.00;;;2.80;;
4694;SDS011;2361;49.540;8.390;2023-06-14T08:04:31;3.90;;;3.60;;
4694;SDS011;2361;49.540;8.390;2023-06-14T08:06:59;3.37;;;3.17;;
4694;SDS011;2361;49.540;8.390;2023-06-14T08:09:27;2.97;;;2.80;;
4694;SDS011;2361;49.540;8.390;2023-06-14T08:11:55;3.60;;;3.30;;
4694;SDS011;2361;49.540;8.390;2023-06-14T08:14:22;9.93;;;2.73;;
4694;SDS011;2361;49.540;8.390;2023-06-14T08:16:49;4.10;;;2.87;;
4694;SDS011;2361;49.540;8.390;2023-06-14T08:19:17;2.90;;;2.67;;
4694;SDS011;2361;49.540;8.390;2023-06-14T08:21:44;3.63;;;3.43;;
4694;SDS011;2361;49.540;8.390;2023-06-14T08:24:12;5.50;;;3.57;;
4694;SDS011;2361;49.540;8.390;2023-06-14T08:26:39;6.00;;;4.50;;
4694;SDS011;2361;49.540;8.390;2023-06-14T08:29:06;4.60;;;4.30;;
4694;SDS011;2361;49.540;8.390;2023-06-14T08:31:34;5.40;;;4.47;;
4694;SDS011;2361;49.540;8.390;2023-06-14T08:34:01;4.47;;;3.57;;
4694;SDS011;2361;49.540;8.390;2023-06-14T08:36:31;4.63;;;4.33;;
4694;SDS011;2361;49.540;8.390;2023-06-14T08:38:58;5.10;;;4.60;;
4694;SDS011;2361;49.540;8.390;2023-06-14T08:41:25;4.10;;;3.70;;
4694;SDS011;2361;49.540;8.390;2023-06-14T08:43:53;4.43;;;4.03;;
4694;SDS011;2361;49.540;8.390;2023-06-14T08:46:20;3.83;;;3.53;;
4694;SDS011;2361;49.540;8.390;2023-06-14T08:48:49;3.80;;;3.53;;
4694;SDS011;2361;49.540;8.390;2023-06-14T08:51:18;3.07;;;2.53;;
4694;SDS011;2361;49.540;8.390;2023-06-14T08:53:51;3.60;;;3.30;;
4694;SDS011;2361;49.540;8.390;2023-06-14T08:56:25;10.03;;;3.37;;
4694;SDS011;2361;49.540;8.390;2023-06-14T08:58:54;3.90;;;3.57;;
4694;SDS011;2361;49.540;8.390;2023-06-14T09:01:30;4.20;;;3.83;;
4694;SDS011;2361;49.540;8.390;2023-06-14T09:04:00;3.37;;;3.17;;
4694;SDS011;2361;49.540;8.390;2023-06-14T09:06:28;2.10;;;1.90;;
4694;SDS011;2361;49.540;8.390;2023-06-14T09:08:56;5.83;;;3.20;;
4694;SDS011;2361;49.540;8.390;2023-06-14T09:11:23;3.30;;;3.10;;
4694;SDS011;2361;49.540;8.390;2023-06-14T09:13:52;3.60;;;2.90;;
4694;SDS011;2361;49.540;8.390;2023-06-14T09:16:20;3.70;;;3.40;;
4694;SDS011;2361;49.540;8.390;2023-06-14T09:18:47;3.30;;;3.00;;
4694;SDS011;2361;49.540;8.390;2023-06-14T09:21:15;3.60;;;3.40;;
4694;SDS011;2361;49.540;8.390;2023-06-14T09:23:44;3.67;;;3.37;;
4694;SDS011;2361;49.540;8.390;2023-06-14T09:26:14;3.40;;;3.10;;
4694;SDS011;2361;49.540;8.390;2023-06-14T09:28:46;3.30;;;3.03;;
4694;SDS011;2361;49.540;8.390;2023-06-14T09:31:16;2.97;;;2.73;;
4694;SDS011;2361;49.540;8.390;2023-06-14T09:33:45;2.23;;;2.03;;
4694;SDS011;2361;49.540;8.390;2023-06-14T09:36:16;3.23;;;3.03;;
4694;SDS011;2361;49.540;8.390;2023-06-14T09:38:54;2.57;;;2.37;;
4694;SDS011;2361;49.540;8.390;2023-06-14T09:41:39;2.93;;;2.83;;
4694;SDS011;2361;49.540;8.390;2023-06-14T09:44:07;3.00;;;2.80;;
4694;SDS011;2361;49.540;8.390;2023-06-14T09:46:41;3.57;;;2.87;;
4694;SDS011;2361;49.540;8.390;2023-06-14T09:49:08;2.90;;;2.70;;
4694;SDS011;2361;49.540;8.390;2023-06-14T09:51:36;3.27;;;3.00;;
4694;SDS011;2361;49.540;8.390;2023-06-14T09:54:15;2.93;;;2.73;;
4694;SDS011;2361;49.540;8.390;2023-06-14T09:56:48;10.13;;;2.70;;
4694;SDS011;2361;49.540;8.390;2023-06-14T09:59:21;2.50;;;2.40;;
4694;SDS011;2361;49.540;8.390;2023-06-14T10:01:57;0.70;;;0.70;;
4694;SDS011;2361;49.540;8.390;2023-06-14T10:04:27;2.87;;;2.67;;
4694;SDS011;2361;49.540;8.390;2023-06-14T10:06:57;1.97;;;1.87;;
4694;SDS011;2361;49.540;8.390;2023-06-14T10:09:26;2.47;;;2.27;;
4694;SDS011;2361;49.540;8.390;2023-06-14T10:11:55;2.20;;;2.00;;
4694;SDS011;2361;49.540;8.390;2023-06-14T10:14:22;1.50;;;1.43;;
4694;SDS011;2361;49.540;8.390;2023-06-14T10:19:36;2.03;;;1.60;;
4694;SDS011;2361;49.540;8.390;2023-06-14T10:22:12;3.93;;;3.20;;
4694;SDS011;2361;49.540;8.390;2023-06-14T10:24:50;3.30;;;3.00;;
4694;SDS011;2361;49.540;8.390;2023-06-14T10:27:17;3.40;;;3.20;;
4694;SDS011;2361;49.540;8.390;2023-06-14T10:32:25;5.20;;;2.83;;
4694;SDS011;2361;49.540;8.390;2023-06-14T10:34:55;4.07;;;3.10;;
4694;SDS011;2361;49.540;8.390;2023-06-14T10:37:36;2.60;;;2.40;;
4694;SDS011;2361;49.540;8.390;2023-06-14T10:40:03;3.00;;;2.80;;
4694;SDS011;2361;49.540;8.390;2023-06-14T10:42:31;2.80;;;2.60;;
4694;SDS011;2361;49.540;8.390;2023-06-14T10:45:00;7.10;;;2.20;;
4694;SDS011;2361;49.540;8.390;2023-06-14T10:47:34;3.07;;;2.87;;
4694;SDS011;2361;49.540;8.390;2023-06-14T10:52:37;4.43;;;3.30;;
4694;SDS011;2361;49.540;8.390;2023-06-14T10:55:10;3.00;;;2.80;;
4694;SDS011;2361;49.540;8.390;2023-06-14T10:57:45;2.83;;;2.70;;
4694;SDS011;2361;49.540;8.390;2023-06-14T11:00:24;1.93;;;1.67;;
4694;SDS011;2361;49.540;8.390;2023-06-14T11:06:12;3.20;;;3.00;;
4694;SDS011;2361;49.540;8.390;2023-06-14T11:11:35;2.90;;;2.70;;
4694;SDS011;2361;49.540;8.390;2023-06-14T11:14:02;2.90;;;2.70;;
4694;SDS011;2361;49.540;8.390;2023-06-14T11:16:30;3.67;;;3.47;;
4694;SDS011;2361;49.540;8.390;2023-06-14T11:19:02;3.30;;;3.10;;
4694;SDS011;2361;49.540;8.390;2023-06-14T11:21:31;3.50;;;3.20;;
4694;SDS011;2361;49.540;8.390;2023-06-14T11:23:59;3.00;;;2.80;;
4694;SDS011;2361;49.540;8.390;2023-06-14T11:26:30;3.57;;;3.20;;
4694;SDS011;2361;49.540;8.390;2023-06-14T11:29:00;4.07;;;3.70;;
4694;SDS011;2361;49.540;8.390;2023-06-14T11:31:28;3.30;;;3.10;;
4694;SDS011;2361;49.540;8.390;2023-06-14T11:33:56;3.40;;;3.20;;
4694;SDS011;2361;49.540;8.390;2023-06-14T11:36:31;3.23;;;2.93;;
4694;SDS011;2361;49.540;8.390;2023-06-14T11:39:03;3.90;;;3.60;;
4694;SDS011;2361;49.540;8.390;2023-06-14T11:41:37;4.40;;;4.00;;
4694;SDS011;2361;49.540;8.390;2023-06-14T11:44:10;3.27;;;3.00;;
4694;SDS011;2361;49.540;8.390;2023-06-14T11:46:38;1.90;;;1.70;;
4694;SDS011;2361;49.540;8.390;2023-06-14T11:49:06;2.77;;;2.57;;
4694;SDS011;2361;49.540;8.390;2023-06-14T11:51:35;1.50;;;1.40;;
4694;SDS011;2361;49.540;8.390;2023-06-14T11:54:03;3.20;;;3.00;;
4694;SDS011;2361;49.540;8.390;2023-06-14T11:56:31;3.53;;;1.20;;
4694;SDS011;2361;49.540;8.390;2023-06-14T11:58:58;3.07;;;2.83;;
4694;SDS011;2361;49.540;8.390;2023-06-14T12:01:26;3.57;;;3.37;;
4694;SDS011;2361;49.540;8.390;2023-06-14T12:03:53;1.73;;;1.57;;
4694;SDS011;2361;49.540;8.390;2023-06-14T12:06:27;3.50;;;3.20;;
4694;SDS011;2361;49.540;8.390;2023-06-14T12:08:59;3.80;;;3.50;;
4694;SDS011;2361;49.540;8.390;2023-06-14T12:11:32;3.10;;;2.90;;
4694;SDS011;2361;49.540;8.390;2023-06-14T12:14:02;3.20;;;3.00;;
4694;SDS011;2361;49.540;8.390;2023-06-14T12:16:34;3.67;;;3.40;;
4694;SDS011;2361;49.540;8.390;2023-06-14T12:19:08;3.80;;;3.60;;
4694;SDS011;2361;49.540;8.390;2023-06-14T12:21:40;3.30;;;3.10;;
4694;SDS011;2361;49.540;8.390;2023-06-14T12:24:08;3.30;;;3.00;;
4694;SDS011;2361;49.540;8.390;2023-06-14T12:26:38;3.50;;;3.20;;
4694;SDS011;2361;49.540;8.390;2023-06-14T12:29:09;4.00;;;3.70;;
4694;SDS011;2361;49.540;8.390;2023-06-14T12:31:39;3.13;;;2.93;;
4694;SDS011;2361;49.540;8.390;2023-06-14T12:34:07;4.20;;;3.93;;
4694;SDS011;2361;49.540;8.390;2023-06-14T12:36:34;1.10;;;1.10;;
4694;SDS011;2361;49.540;8.390;2023-06-14T12:39:06;3.80;;;3.50;;
4694;SDS011;2361;49.540;8.390;2023-06-14T12:41:34;3.20;;;3.00;;
4694;SDS011;2361;49.540;8.390;2023-06-14T12:44:03;3.53;;;3.27;;
4694;SDS011;2361;49.540;8.390;2023-06-14T12:46:31;5.00;;;2.30;;
4694;SDS011;2361;49.540;8.390;2023-06-14T12:48:58;3.10;;;2.90;;
4694;SDS011;2361;49.540;8.390;2023-06-14T12:51:25;3.60;;;3.40;;
4694;SDS011;2361;49.540;8.390;2023-06-14T12:53:56;3.57;;;3.27;;
4694;SDS011;2361;49.540;8.390;2023-06-14T12:56:23;2.60;;;2.40;;
4694;SDS011;2361;49.540;8.390;2023-06-14T12:58:50;3.23;;;2.90;;
4694;SDS011;2361;49.540;8.390;2023-06-14T13:01:18;2.87;;;2.67;;
4694;SDS011;2361;49.540;8.390;2023-06-14T13:03:46;3.43;;;3.17;;
4694;SDS011;2361;49.540;8.390;2023-06-14T13:06:14;3.50;;;3.20;;
4694;SDS011;2361;49.540;8.390;2023-06-14T13:08:41;3.30;;;3.00;;
4694;SDS011;2361;49.540;8.390;2023-06-14T13:11:08;2.77;;;2.57;;
4694;SDS011;2361;49.540;8.390;2023-06-14T13:13:35;3.77;;;3.47;;
4694;SDS011;2361;49.540;8.390;2023-06-14T13:16:02;3.47;;;3.27;;
4694;SDS011;2361;49.540;8.390;2023-06-14T13:18:32;3.23;;;3.03;;
4694;SDS011;2361;49.540;8.390;2023-06-14T13:21:00;3.30;;;3.10;;
4694;SDS011;2361;49.540;8.390;2023-06-14T13:23:27;3.67;;;3.57;;
4694;SDS011;2361;49.540;8.390;2023-06-14T13:25:54;3.10;;;2.80;;
4694;SDS011;2361;49.540;8.390;2023-06-14T13:28:22;3.83;;;3.40;;
4694;SDS011;2361;49.540;8.390;2023-06-14T13:30:49;3.50;;;3.00;;
4694;SDS011;2361;49.540;8.390;2023-06-14T13:33:16;2.63;;;2.53;;
4694;SDS011;2361;49.540;8.390;2023-06-14T13:35:43;3.20;;;3.00;;
4694;SDS011;2361;49.540;8.390;2023-06-14T13:38:12;3.50;;;3.20;;
4694;SDS011;2361;49.540;8.390;2023-06-14T13:40:41;1.67;;;1.57;;
4694;SDS011;2361;49.540;8.390;2023-06-14T13:43:08;3.40;;;3.20;;
4694;SDS011;2361;49.540;8.390;2023-06-14T13:45:36;7.23;;;2.53;;
4694;SDS011;2361;49.540;8.390;2023-06-14T13:48:03;2.90;;;2.67;;
4694;SDS011;2361;49.540;8.390;2023-06-14T13:50:33;1.97;;;1.87;;
4694;SDS011;2361;49.540;8.390;2023-06-14T13:53:00;3.13;;;2.93;;
4694;SDS011;2361;49.540;8.390;2023-06-14T13:55:28;3.00;;;2.80;;
4694;SDS011;2361;49.540;8.390;2023-06-14T13:57:55;3.43;;;3.20;;
4694;SDS011;2361;49.540;8.390;2023-06-14T14:00:24;1.97;;;1.87;;
4694;SDS011;2361;49.540;8.390;2023-06-14T14:02:52;3.10;;;2.90;;
4694;SDS011;2361;49.540;8.390;2023-06-14T14:05:19;2.67;;;2.50;;
4694;SDS011;2361;49.540;8.390;2023-06-14T14:07:47;2.60;;;2.37;;
4694;SDS011;2361;49.540;8.390;2023-06-14T14:10:14;4.00;;;3.70;;
4694;SDS011;2361;49.540;8.390;2023-06-14T14:12:41;2.43;;;2.33;;
4694;SDS011;2361;49.540;8.390;2023-06-14T14:15:08;2.63;;;2.43;;
4694;SDS011;2361;49.540;8.390;2023-06-14T14:17:39;3.73;;;3.43;;
4694;SDS011;2361;49.540;8.390;2023-06-14T14:20:07;3.40;;;3.10;;
4694;SDS011;2361;49.540;8.390;2023-06-14T14:22:35;2.00;;;1.90;;
4694;SDS011;2361;49.540;8.390;2023-06-14T14:25:02;3.60;;;3.30;;
4694;SDS011;2361;49.540;8.390;2023-06-14T14:27:29;4.23;;;3.40;;
4694;SDS011;2361;49.540;8.390;2023-06-14T14:29:56;3.43;;;3.23;;
4694;SDS011;2361;49.540;8.390;2023-06-14T14:32:23;3.00;;;2.80;;
4694;SDS011;2361;49.540;8.390;2023-06-14T14:34:50;2.73;;;2.63;;
4694;SDS011;2361;49.540;8.390;2023-06-14T14:37:17;3.10;;;3.00;;
4694;SDS011;2361;49.540;8.390;2023-06-14T14:39:44;4.70;;;3.80;;
4694;SDS011;2361;49.540;8.390;2023-06-14T14:42:12;11.60;;;2.30;;
4694;SDS011;2361;49.540;8.390;2023-06-14T14:44:39;2.50;;;2.40;;
4694;SDS011;2361;49.540;8.390;2023-06-14T14:47:06;3.80;;;3.50;;
4694;SDS011;2361;49.540;8.390;2023-06-14T14:49:33;3.53;;;3.33;;
4694;SDS011;2361;49.540;8.390;2023-06-14T14:52:00;2.40;;;2.20;;
4694;SDS011;2361;49.540;8.390;2023-06-14T14:54:44;3.90;;;3.60;;
4694;SDS011;2361;49.540;8.390;2023-06-14T14:57:11;1.83;;;1.73;;
4694;SDS011;2361;49.540;8.390;2023-06-14T14:59:38;2.30;;;2.17;;
4694;SDS011;2361;49.540;8.390;2023-06-14T15:02:05;2.80;;;2.60;;
4694;SDS011;2361;49.540;8.390;2023-06-14T15:04:32;2.70;;;2.37;;
4694;SDS011;2361;49.540;8.390;2023-06-14T15:06:59;2.57;;;2.47;;
4694;SDS011;2361;49.540;8.390;2023-06-14T15:09:26;2.17;;;1.57;;
4694;SDS011;2361;49.540;8.390;2023-06-14T15:11:53;2.30;;;2.20;;
4694;SDS011;2361;49.540;8.390;2023-06-14T15:14:20;3.90;;;3.60;;
4694;SDS011;2361;49.540;8.390;2023-06-14T15:16:47;2.60;;;2.47;;
4694;SDS011;2361;49.540;8.390;2023-06-14T15:19:14;3.60;;;3.30;;
4694;SDS011;2361;49.540;8.390;2023-06-14T15:21:44;2.77;;;2.57;;
4694;SDS011;2361;49.540;8.390;2023-06-14T15:24:11;2.90;;;2.70;;
4694;SDS011;2361;49.540;8.390;2023-06-14T15:26:38;1.77;;;1.67;;
4694;SDS011;2361;49.540;8.390;2023-06-14T15:29:05;2.93;;;2.73;;
4694;SDS011;2361;49.540;8.390;2023-06-14T15:31:32;3.17;;;3.00;;
4694;SDS011;2361;49.540;8.390;2023-06-14T15:33:59;3.20;;;2.90;;
4694;SDS011;2361;49.540;8.390;2023-06-14T15:36:26;4.60;;;3.77;;
4694;SDS011;2361;49.540;8.390;2023-06-14T15:38:53;2.90;;;2.70;;
4694;SDS011;2361;49.540;8.390;2023-06-14T15:41:20;2.73;;;2.53;;